createdAt,value
2023-01-20T00:00:14.335Z,100.00
2023-01-20T00:03:00.787Z,100.00
2023-01-20T00:05:51.519Z,100.00
2023-01-20T00:08:38.656Z,100.00
2023-01-20T00:11:25.573Z,100.00
2023-01-20T00:14:12.010Z,100.00
2023-01-20T00:17:00.121Z,100.00
2023-01-20T00:19:46.792Z,100.00
2023-01-20T00:22:34.140Z,100.00
2023-01-20T00:25:20.942Z,100.00
2023-01-20T00:28:07.640Z,100.00
2023-01-20T00:30:54.304Z,100.00
2023-01-20T00:33:41.356Z,100.00
2023-01-20T00:36:31.333Z,100.00
2023-01-20T00:39:17.808Z,100.00
2023-01-20T00:42:04.016Z,100.00
2023-01-20T00:44:50.373Z,100.00
2023-01-20T00:47:37.068Z,100.00
2023-01-20T00:50:23.212Z,100.00
2023-01-20T00:53:09.757Z,100.00
2023-01-20T00:55:56.032Z,100.00
2023-01-20T00:58:44.320Z,100.00
2023-01-20T01:01:30.871Z,100.00
2023-01-20T01:04:17.436Z,100.00
2023-01-20T01:07:03.961Z,100.00
2023-01-20T01:09:50.348Z,100.00
2023-01-20T01:12:37.025Z,100.00
2023-01-20T01:15:23.617Z,100.00
2023-01-20T01:18:09.906Z,100.00
2023-01-20T01:20:56.590Z,100.00
2023-01-20T01:23:43.802Z,100.00
2023-01-20T01:26:30.329Z,100.00
2023-01-20T01:29:16.668Z,100.00
2023-01-20T01:32:03.080Z,100.00
2023-01-20T01:34:49.638Z,100.00
2023-01-20T01:37:36.315Z,100.00
2023-01-20T01:40:22.727Z,100.00
2023-01-20T01:43:31.693Z,100.00
2023-01-20T01:46:17.992Z,100.00
2023-01-20T01:49:28.921Z,100.00
2023-01-20T01:52:15.826Z,100.00
2023-01-20T01:55:03.652Z,100.00
2023-01-20T01:57:51.612Z,100.00
2023-01-20T02:00:38.991Z,100.00
2023-01-20T02:03:31.707Z,100.00
2023-01-20T02:06:18.419Z,100.00
2023-01-20T02:09:05.204Z,100.00
2023-01-20T02:11:59.838Z,100.00
2023-01-20T02:14:50.583Z,100.00
2023-01-20T02:17:53.789Z,100.00
2023-01-20T02:20:50.063Z,100.00
2023-01-20T02:23:52.086Z,100.00
2023-01-20T02:26:57.458Z,100.00
2023-01-20T02:30:01.861Z,100.00
2023-01-20T02:32:57.631Z,100.00
2023-01-20T02:35:51.866Z,100.00
2023-01-20T02:38:56.355Z,100.00
2023-01-20T02:42:12.154Z,100.00
2023-01-20T02:45:15.359Z,100.00
2023-01-20T02:48:36.810Z,100.00
2023-01-20T02:51:30.471Z,100.00
2023-01-20T02:54:18.595Z,100.00
2023-01-20T02:57:08.481Z,100.00
2023-01-20T03:00:07.775Z,100.00
2023-01-20T03:02:57.827Z,100.00
2023-01-20T03:05:51.781Z,100.00
2023-01-20T03:08:40.832Z,100.00
2023-01-20T03:11:31.536Z,100.00
2023-01-20T03:14:18.197Z,100.00
2023-01-20T03:17:04.703Z,100.00
2023-01-20T03:19:51.024Z,100.00
2023-01-20T03:22:37.206Z,100.00
2023-01-20T03:25:23.951Z,100.00
2023-01-20T03:28:10.056Z,100.00
2023-01-20T03:30:58.455Z,100.00
2023-01-20T03:33:47.195Z,100.00
2023-01-20T03:36:34.227Z,100.00
2023-01-20T03:39:21.435Z,100.00
2023-01-20T03:42:14.906Z,100.00
2023-01-20T03:45:50.136Z,100.00
2023-01-20T03:48:49.900Z,100.00
2023-01-20T03:51:54.908Z,100.00
2023-01-20T03:54:48.659Z,100.00
2023-01-20T03:57:41.400Z,100.00
2023-01-20T04:00:29.649Z,100.00
2023-01-20T04:03:25.852Z,100.00
2023-01-20T04:06:15.153Z,100.00
2023-01-20T04:09:08.015Z,100.00
2023-01-20T04:11:54.410Z,100.00
2023-01-20T04:14:40.850Z,100.00
2023-01-20T04:17:29.075Z,100.00
2023-01-20T04:20:15.865Z,100.00
2023-01-20T04:23:02.711Z,100.00
2023-01-20T04:25:49.272Z,100.00
2023-01-20T04:28:35.765Z,100.00
2023-01-20T04:31:30.504Z,100.00
2023-01-20T04:34:17.952Z,100.00
2023-01-20T04:37:04.658Z,100.00
2023-01-20T04:39:54.133Z,100.00
2023-01-20T04:42:40.397Z,100.00
2023-01-20T04:45:27.087Z,100.00
2023-01-20T04:48:13.267Z,100.00
2023-01-20T04:51:15.180Z,100.00
2023-01-20T04:54:01.490Z,100.00
2023-01-20T04:56:49.039Z,100.00
2023-01-20T04:59:35.396Z,100.00
2023-01-20T05:02:21.742Z,100.00
2023-01-20T05:05:09.019Z,100.00
2023-01-20T05:07:57.016Z,100.00
2023-01-20T05:10:43.544Z,100.00
2023-01-20T05:13:29.899Z,100.00
2023-01-20T05:16:21.765Z,100.00
2023-01-20T05:19:08.224Z,100.00
2023-01-20T05:21:57.066Z,100.00
2023-01-20T05:24:43.316Z,100.00
2023-01-20T05:27:29.617Z,100.00
2023-01-20T05:30:16.388Z,100.00
2023-01-20T05:33:02.534Z,100.00
2023-01-20T05:35:48.791Z,100.00
2023-01-20T05:38:35.574Z,100.00
2023-01-20T05:41:21.924Z,100.00
2023-01-20T05:44:09.004Z,100.00
2023-01-20T05:46:55.749Z,100.00
2023-01-20T05:49:42.091Z,100.00
2023-01-20T05:52:28.427Z,100.00
2023-01-20T05:55:15.288Z,100.00
2023-01-20T05:58:02.895Z,100.00
2023-01-20T06:00:49.138Z,100.00
2023-01-20T06:03:35.542Z,100.00
2023-01-20T06:06:22.170Z,100.00
2023-01-20T06:09:10.876Z,100.00
2023-01-20T06:11:57.221Z,100.00
2023-01-20T06:14:44.058Z,100.00
2023-01-20T06:17:30.403Z,100.00
2023-01-20T06:20:17.252Z,100.00
2023-01-20T06:23:03.772Z,100.00
2023-01-20T06:25:57.508Z,100.00
2023-01-20T06:28:44.236Z,100.00
2023-01-20T06:31:30.749Z,100.00
2023-01-20T06:34:17.405Z,100.00
2023-01-20T06:37:04.074Z,100.00
2023-01-20T06:39:50.600Z,100.00
2023-01-20T06:42:36.959Z,100.00
2023-01-20T06:45:24.377Z,100.00
2023-01-20T06:48:10.695Z,100.00
2023-01-20T06:51:02.031Z,100.00
2023-01-20T06:53:48.507Z,100.00
2023-01-20T06:56:35.027Z,100.00
2023-01-20T06:59:21.396Z,100.00
2023-01-20T07:02:12.010Z,100.00
2023-01-20T07:04:59.989Z,100.00
2023-01-20T07:07:46.473Z,100.00
2023-01-20T07:10:32.747Z,100.00
2023-01-20T07:13:19.182Z,100.00
2023-01-20T07:16:05.657Z,100.00
2023-01-20T07:18:53.659Z,100.00
2023-01-20T07:21:39.880Z,100.00
2023-01-20T07:24:26.269Z,100.00
2023-01-20T07:27:15.018Z,100.00
2023-01-20T07:30:01.526Z,100.00
2023-01-20T07:32:48.051Z,100.00
2023-01-20T07:35:34.542Z,100.00
2023-01-20T07:38:20.902Z,100.00
2023-01-20T07:41:11.843Z,100.00
2023-01-20T07:43:58.559Z,100.00
2023-01-20T07:46:45.247Z,100.00
2023-01-20T07:49:31.504Z,100.00
2023-01-20T07:52:18.070Z,100.00
2023-01-20T07:55:05.129Z,100.00
2023-01-20T07:57:51.804Z,100.00
2023-01-20T08:00:38.401Z,100.00
2023-01-20T08:03:27.350Z,100.00
2023-01-20T08:06:15.907Z,100.00
2023-01-20T08:09:02.778Z,100.00
2023-01-20T08:11:49.266Z,100.00
2023-01-20T08:14:37.794Z,100.00
2023-01-20T08:17:24.596Z,100.00
2023-01-20T08:20:11.321Z,100.00
2023-01-20T08:22:57.551Z,100.00
2023-01-20T08:25:44.480Z,100.00
2023-01-20T08:28:31.676Z,100.00
2023-01-20T08:31:21.026Z,100.00
2023-01-20T08:34:07.525Z,100.00
2023-01-20T08:36:54.125Z,100.00
2023-01-20T08:39:40.568Z,100.00
2023-01-20T08:42:27.028Z,100.00
2023-01-20T08:45:14.278Z,100.00
2023-01-20T08:48:01.419Z,100.00
2023-01-20T08:50:47.839Z,100.00
2023-01-20T08:53:34.627Z,100.00
2023-01-20T08:56:21.707Z,100.00
2023-01-20T08:59:07.909Z,100.00
2023-01-20T09:01:54.516Z,100.00
2023-01-20T09:04:41.103Z,100.00
2023-01-20T09:07:27.635Z,100.00
2023-01-20T09:10:14.299Z,100.00
2023-01-20T09:13:00.803Z,100.00
2023-01-20T09:15:52.881Z,100.00
2023-01-20T09:18:39.330Z,100.00
2023-01-20T09:21:25.575Z,100.00
2023-01-20T09:24:12.107Z,100.00
2023-01-20T09:26:58.565Z,100.00
2023-01-20T09:29:44.922Z,100.00
2023-01-20T09:32:32.721Z,100.00
2023-01-20T09:35:19.307Z,100.00
2023-01-20T09:38:25.045Z,100.00
2023-01-20T09:41:37.369Z,100.00
2023-01-20T09:44:34.057Z,100.00
2023-01-20T09:47:31.612Z,100.00
2023-01-20T09:50:49.211Z,100.00
2023-01-20T09:53:56.792Z,100.00
2023-01-20T09:56:47.767Z,100.00
2023-01-20T09:59:46.435Z,100.00
2023-01-20T10:02:35.878Z,100.00
2023-01-20T10:05:32.836Z,100.00
2023-01-20T10:08:34.494Z,100.00
2023-01-20T10:11:23.939Z,100.00
2023-01-20T10:14:16.353Z,100.00
2023-01-20T10:17:20.493Z,100.00
2023-01-20T10:20:36.969Z,100.00
2023-01-20T10:23:45.034Z,100.00
2023-01-20T10:26:49.065Z,100.00
2023-01-20T10:29:38.539Z,100.00
2023-01-20T10:32:41.005Z,100.00
2023-01-20T10:35:31.261Z,100.00
2023-01-20T10:38:31.857Z,100.00
2023-01-20T10:41:50.431Z,100.00
2023-01-20T10:44:36.919Z,100.00
2023-01-20T10:47:44.158Z,100.00
2023-01-20T10:50:49.411Z,100.00
2023-01-20T10:53:47.461Z,100.00
2023-01-20T10:56:34.019Z,100.00
2023-01-20T10:59:46.800Z,100.00
2023-01-20T11:02:37.912Z,100.00
2023-01-20T11:05:38.127Z,100.00
2023-01-20T11:08:28.075Z,100.00
2023-01-20T11:11:23.575Z,100.00
2023-01-20T11:14:10.142Z,100.00
2023-01-20T11:17:02.046Z,100.00
2023-01-20T11:19:51.454Z,100.00
2023-01-20T11:22:38.262Z,100.00
2023-01-20T11:25:27.016Z,100.00
2023-01-20T11:28:19.484Z,100.00
2023-01-20T11:31:06.122Z,98.65
2023-01-20T11:34:01.650Z,95.51
2023-01-20T11:37:11.658Z,95.63
2023-01-20T11:40:04.473Z,95.91
2023-01-20T11:42:52.465Z,94.30
2023-01-20T11:45:39.047Z,93.26
2023-01-20T11:48:25.342Z,93.58
2023-01-20T11:51:24.799Z,92.74
2023-01-20T11:54:17.222Z,90.31
2023-01-20T11:57:07.684Z,89.25
2023-01-20T11:59:54.019Z,88.99
2023-01-20T12:02:41.692Z,89.87
2023-01-20T12:05:55.995Z,90.46
2023-01-20T12:08:50.727Z,88.34
2023-01-20T12:11:52.082Z,85.72
2023-01-20T12:14:47.146Z,86.79
2023-01-20T12:17:58.727Z,87.66
2023-01-20T12:20:59.140Z,84.63
2023-01-20T12:24:08.454Z,84.74
2023-01-20T12:26:54.945Z,86.09
2023-01-20T12:29:45.703Z,85.56
2023-01-20T12:32:33.289Z,84.88
2023-01-20T12:35:24.584Z,81.93
2023-01-20T12:38:18.968Z,82.28
2023-01-20T12:41:13.032Z,81.23
2023-01-20T12:44:27.385Z,80.13
2023-01-20T12:47:38.968Z,80.05
2023-01-20T12:51:02.518Z,78.68
2023-01-20T12:54:00.891Z,78.92
2023-01-20T12:57:09.274Z,78.24
2023-01-20T13:00:23.619Z,77.11
2023-01-20T13:03:49.898Z,74.14
2023-01-20T13:07:01.121Z,75.35
2023-01-20T13:10:28.874Z,76.68
2023-01-20T13:13:30.662Z,74.78
2023-01-20T13:16:29.472Z,73.23
2023-01-20T13:19:19.281Z,71.25
2023-01-20T13:22:16.427Z,71.90
2023-01-20T13:25:04.840Z,73.62
2023-01-20T13:27:54.385Z,74.94
2023-01-20T13:30:51.640Z,73.77
2023-01-20T13:33:40.732Z,73.62
2023-01-20T13:36:27.473Z,74.73
2023-01-20T13:39:45.183Z,74.97
2023-01-20T13:42:37.787Z,74.21
2023-01-20T13:45:26.334Z,72.26
2023-01-20T13:48:23.571Z,72.33
2023-01-20T13:51:30.109Z,72.85
2023-01-20T13:54:25.413Z,72.11
2023-01-20T13:57:26.159Z,69.09
2023-01-20T14:00:13.612Z,66.63
2023-01-20T14:03:17.418Z,66.42
2023-01-20T14:06:20.227Z,70.39
2023-01-20T14:09:11.685Z,69.93
2023-01-20T14:11:58.784Z,69.47
2023-01-20T14:14:49.267Z,68.74
2023-01-20T14:17:36.582Z,67.87
2023-01-20T14:20:25.487Z,68.94
2023-01-20T14:23:34.315Z,67.18
2023-01-20T14:26:25.888Z,66.00
2023-01-20T14:29:20.107Z,67.12
2023-01-20T14:32:28.561Z,68.81
2023-01-20T14:35:21.083Z,69.88
2023-01-20T14:38:18.553Z,70.54
2023-01-20T14:41:05.561Z,70.30
2023-01-20T14:43:52.198Z,70.65
2023-01-20T14:46:39.843Z,71.78
2023-01-20T14:49:39.592Z,72.61
2023-01-20T14:52:29.110Z,75.65
2023-01-20T14:55:36.345Z,76.01
2023-01-20T14:58:24.482Z,76.13
2023-01-20T15:01:22.202Z,74.47
2023-01-20T15:04:12.776Z,74.38
2023-01-20T15:06:59.841Z,75.62
2023-01-20T15:10:17.372Z,74.01
2023-01-20T15:13:04.708Z,74.41
2023-01-20T15:15:51.581Z,76.02
2023-01-20T15:18:37.900Z,76.70
2023-01-20T15:21:27.056Z,78.14
2023-01-20T15:24:17.705Z,78.42
2023-01-20T15:27:30.484Z,78.85
2023-01-20T15:30:24.194Z,80.31
2023-01-20T15:33:10.762Z,79.91
2023-01-20T15:36:00.202Z,79.65
2023-01-20T15:38:47.536Z,79.99
2023-01-20T15:41:33.842Z,81.07
2023-01-20T15:44:20.907Z,83.49
2023-01-20T15:47:25.877Z,81.92
2023-01-20T15:50:31.896Z,83.28
2023-01-20T15:53:18.403Z,86.90
2023-01-20T15:56:05.040Z,90.14
2023-01-20T15:58:52.322Z,94.18
2023-01-20T16:01:38.721Z,96.44
2023-01-20T16:04:25.262Z,98.83
2023-01-20T16:07:18.115Z,100.00
2023-01-20T16:10:05.081Z,100.00
2023-01-20T16:12:51.744Z,100.00
2023-01-20T16:15:39.908Z,100.00
2023-01-20T16:18:26.529Z,100.00
2023-01-20T16:21:18.982Z,100.00
2023-01-20T16:24:06.123Z,100.00
2023-01-20T16:26:52.873Z,100.00
2023-01-20T16:29:39.110Z,100.00
2023-01-20T16:32:25.341Z,100.00
2023-01-20T16:35:17.108Z,100.00
2023-01-20T16:38:04.361Z,100.00
2023-01-20T16:40:53.994Z,100.00
2023-01-20T16:43:43.635Z,100.00
2023-01-20T16:46:32.812Z,100.00
2023-01-20T16:49:22.676Z,100.00
2023-01-20T16:52:10.783Z,100.00
2023-01-20T16:54:56.933Z,100.00
2023-01-20T16:57:43.328Z,100.00
2023-01-20T17:00:30.697Z,100.00
2023-01-20T17:03:16.882Z,100.00
2023-01-20T17:06:17.979Z,100.00
2023-01-20T17:09:05.543Z,100.00
2023-01-20T17:11:52.029Z,100.00
2023-01-20T17:14:38.368Z,100.00
2023-01-20T17:17:24.627Z,100.00
2023-01-20T17:20:11.490Z,100.00
2023-01-20T17:22:58.178Z,100.00
2023-01-20T17:25:44.513Z,100.00
2023-01-20T17:28:30.887Z,100.00
2023-01-20T17:31:17.037Z,100.00
2023-01-20T17:34:04.960Z,100.00
2023-01-20T17:36:51.201Z,100.00
2023-01-20T17:39:37.477Z,100.00
2023-01-20T17:42:24.012Z,100.00
2023-01-20T17:45:11.056Z,100.00
2023-01-20T17:47:57.488Z,100.00
2023-01-20T17:50:44.063Z,100.00
2023-01-20T17:53:32.036Z,100.00
2023-01-20T17:56:21.459Z,100.00
2023-01-20T17:59:08.549Z,100.00
2023-01-20T18:01:55.377Z,100.00
2023-01-20T18:04:41.944Z,100.00
2023-01-20T18:07:28.177Z,100.00
2023-01-20T18:10:14.655Z,100.00
2023-01-20T18:13:01.085Z,100.00
2023-01-20T18:15:47.117Z,100.00
2023-01-20T18:18:33.681Z,100.00
2023-01-20T18:21:22.396Z,100.00
2023-01-20T18:24:10.706Z,100.00
2023-01-20T18:26:57.977Z,100.00
2023-01-20T18:29:45.144Z,100.00
2023-01-20T18:32:31.982Z,100.00
2023-01-20T18:35:19.175Z,100.00
2023-01-20T18:38:05.346Z,100.00
2023-01-20T18:40:51.775Z,100.00
2023-01-20T18:43:39.040Z,100.00
2023-01-20T18:46:26.703Z,100.00
2023-01-20T18:49:14.139Z,100.00
2023-01-20T18:52:00.329Z,100.00
2023-01-20T18:54:46.648Z,100.00
2023-01-20T18:57:33.113Z,100.00
2023-01-20T19:00:19.705Z,100.00
2023-01-20T19:03:06.033Z,100.00
2023-01-20T19:05:52.228Z,100.00
2023-01-20T19:08:40.303Z,100.00
2023-01-20T19:11:32.245Z,100.00
2023-01-20T19:14:18.469Z,100.00
2023-01-20T19:17:05.029Z,100.00
2023-01-20T19:19:51.334Z,100.00
2023-01-20T19:22:37.696Z,100.00
2023-01-20T19:25:29.533Z,100.00
2023-01-20T19:28:16.309Z,100.00
2023-01-20T19:31:07.864Z,100.00
2023-01-20T19:33:54.170Z,100.00
2023-01-20T19:36:40.968Z,100.00
2023-01-20T19:39:27.636Z,100.00
2023-01-20T19:42:14.334Z,100.00
2023-01-20T19:45:01.004Z,100.00
2023-01-20T19:47:47.721Z,100.00
2023-01-20T19:50:34.374Z,100.00
2023-01-20T19:53:20.943Z,100.00
2023-01-20T19:56:12.691Z,100.00
2023-01-20T19:59:00.802Z,100.00
2023-01-20T20:01:47.395Z,100.00
2023-01-20T20:04:33.921Z,100.00
2023-01-20T20:07:20.673Z,100.00
2023-01-20T20:10:06.924Z,100.00
2023-01-20T20:12:53.121Z,100.00
2023-01-20T20:15:39.580Z,100.00
2023-01-20T20:18:26.935Z,100.00
2023-01-20T20:21:13.654Z,100.00
2023-01-20T20:24:01.369Z,100.00
2023-01-20T20:26:48.168Z,100.00
2023-01-20T20:29:34.858Z,100.00
2023-01-20T20:32:21.122Z,100.00
2023-01-20T20:35:07.713Z,100.00
2023-01-20T20:37:54.052Z,100.00
2023-01-20T20:40:40.441Z,100.00
2023-01-20T20:43:28.030Z,100.00
2023-01-20T20:46:16.230Z,100.00
2023-01-20T20:49:02.852Z,100.00
2023-01-20T20:51:49.177Z,100.00
2023-01-20T20:54:35.547Z,100.00
2023-01-20T20:57:21.962Z,100.00
2023-01-20T21:00:09.527Z,100.00
2023-01-20T21:02:56.559Z,100.00
2023-01-20T21:05:48.957Z,100.00
2023-01-20T21:08:35.440Z,100.00
2023-01-20T21:11:24.058Z,100.00
2023-01-20T21:14:10.675Z,100.00
2023-01-20T21:16:57.193Z,100.00
2023-01-20T21:19:43.404Z,100.00
2023-01-20T21:22:30.159Z,100.00
2023-01-20T21:25:18.114Z,100.00
2023-01-20T21:28:05.015Z,100.00
2023-01-20T21:30:51.293Z,100.00
2023-01-20T21:33:39.064Z,100.00
2023-01-20T21:36:26.839Z,100.00
2023-01-20T21:39:15.734Z,100.00
2023-01-20T21:42:02.351Z,100.00
2023-01-20T21:44:49.415Z,100.00
2023-01-20T21:47:36.032Z,100.00
2023-01-20T21:50:41.288Z,100.00
2023-01-20T21:53:28.022Z,100.00
2023-01-20T21:56:18.137Z,100.00
2023-01-20T21:59:04.904Z,100.00
2023-01-20T22:01:52.087Z,100.00
2023-01-20T22:04:39.944Z,100.00
2023-01-20T22:07:26.243Z,100.00
2023-01-20T22:10:12.824Z,100.00
2023-01-20T22:12:59.494Z,100.00
2023-01-20T22:15:46.027Z,100.00
2023-01-20T22:18:32.917Z,100.00
2023-01-20T22:21:20.727Z,100.00
2023-01-20T22:24:07.409Z,100.00
2023-01-20T22:26:53.742Z,100.00
2023-01-20T22:29:40.070Z,100.00
2023-01-20T22:32:27.025Z,100.00
2023-01-20T22:35:13.322Z,100.00
2023-01-20T22:37:59.956Z,100.00
2023-01-20T22:40:46.481Z,100.00
2023-01-20T22:43:35.089Z,100.00
2023-01-20T22:46:23.703Z,100.00
2023-01-20T22:49:11.529Z,100.00
2023-01-20T22:51:57.866Z,100.00
2023-01-20T22:54:44.068Z,100.00
2023-01-20T22:57:30.619Z,100.00
2023-01-20T23:00:17.608Z,100.00
2023-01-20T23:03:04.463Z,100.00
2023-01-20T23:05:58.866Z,100.00
2023-01-20T23:08:45.315Z,100.00
2023-01-20T23:11:32.501Z,100.00
2023-01-20T23:14:38.929Z,100.00
2023-01-20T23:17:30.901Z,100.00
2023-01-20T23:20:17.784Z,100.00
2023-01-20T23:23:05.361Z,100.00
2023-01-20T23:25:51.962Z,100.00
2023-01-20T23:28:38.390Z,100.00
2023-01-20T23:31:28.365Z,100.00
2023-01-20T23:34:14.962Z,100.00
2023-01-20T23:37:01.083Z,100.00
2023-01-20T23:39:47.337Z,100.00
2023-01-20T23:42:33.578Z,100.00
2023-01-20T23:45:19.921Z,100.00
2023-01-20T23:48:06.364Z,100.00
2023-01-20T23:50:53.335Z,100.00
2023-01-20T23:53:43.217Z,100.00
2023-01-20T23:56:29.849Z,100.00
2023-01-20T23:59:16.402Z,100.00
